Insider Trading activities of Complete Production Services, Inc. insiders.

Monthly summaries of insider trading activities (stock purchases, sales, and option exercises) reported by insiders of Complete Production Services, Inc. since 2005 are illustrated in Table 1 and Table 2. Table 1 shows the monthly insider trading data of Complete Production Services, Inc. since year 2005. Table 2 shows the detailed insider transactions of Complete Production Services, Inc. since 2005. The reporting company's ticker symbol is CPX. The reporting company's CIK number is 1340041.
The total value of stock buying since 2005 is $11,571,332.
The total value of stock sales since 2005 is $661,285,479.
The total value of stock option exercises since 2005 is $15,581,581.


Table 1. Monthly summaries of insider stock purchases, sales, and option exercises for Complete Production Services, Inc. (CPX).
Trading Period Insider Buying Insider Sales Option Exercises
year-month Shares Value Shares Value Shares Value
2012-02 0 $0 0 $0 30,000 $553,710
2012-01 0 $0 0 $0 140,000 $2,648,100
2011-05 0 $0 187,651 $6,394,395 187,651 $3,356,138
2011-04 0 $0 1,436,858 $48,898,127 97,849 $2,146,317
2011-03 0 $0 453,113 $13,540,907 222,503 $3,491,975
2010-10 0 $0 3,333 $77,178 3,333 $22,597
2010-08 60,000 $1,001,880 378 $6,449 0 $0
2010-05 0 $0 95,702 $1,436,062 35,067 $316,829
2010-02 0 $0 317,077 $4,187,839 0 $0
2010-01 0 $0 2,147,015 $31,088,316 0 $0
2009-12 0 $0 0 $0 16,703 $83,515
2009-11 605 $5,939 0 $0 0 $0
2009-10 0 $0 1,722,763 $20,815,302 0 $0
2009-09 0 $0 150,000 $1,701,000 0 $0
2009-06 203,646 $1,441,749 0 $0 0 $0
2009-03 689,000 $2,030,997 0 $0 0 $0
2009-02 143,700 $706,671 0 $0 12,514 $25,028
2008-12 79,285 $533,717 0 $0 4,461 $19,985
2008-08 0 $0 1,703,357 $50,693,243 0 $0
2008-07 0 $0 119,900 $4,213,750 0 $0
2008-06 0 $0 684,536 $21,751,807 123,457 $1,398,233
2008-05 0 $0 4,181,781 $116,462,293 14,501 $328,059
2008-04 0 $0 516,531 $11,342,587 183,811 $659,213
2007-12 0 $0 0 $0 4,461 $19,985
2007-06 0 $0 15,000 $0 15,000 $30,000
2007-05 0 $0 16,286 $35,236 16,286 $78,009
2007-04 0 $0 86,900 $1,160,500 89,440 $272,808
2007-03 0 $0 29,386 $587,720 25,800 $123,582
2007-02 12,500 $243,875 26,604 $532,718 0 $0
2006-12 0 $0 5,000 $110,050 0 $0
2006-07 5,000 $104,765 0 $0 1,905 $7,498
2006-05 41,000 $937,995 0 $0 0 $0
2006-04 190,156 $4,563,744 14,500,000 $326,250,000 0 $0

Table 2. Detailed insider stock purchases, sales, and option exercises of Complete Production Services, Inc. insiders (CPX)
  Trade Date   Insider Name Trade Type     Shares       Price ($)   Value ($)
2012-02-01 Boswell Robert S (Director) Option Ex 30,000 18.46 553,710
2012-01-31 Hamm Harold (Director) Option Ex 30,000 18.46 553,710
2012-01-31 Watts Marcus A (Director) Option Ex 25,000 18.92 473,100
2012-01-30 Mcshane Michael (Director) Option Ex 25,000 18.92 473,100
2012-01-30 Ralls W Matt (Director) Option Ex 30,000 19.82 594,480
2012-01-30 Woods James D (Director) Option Ex 30,000 18.46 553,710
2011-05-02 Winkler Joseph C (Chairman and CEO) Sale 187,651 34.08 6,394,395
2011-05-02 Winkler Joseph C (Chairman and CEO) Option Ex 187,651 17.88 3,356,138
2011-04-29 Moore Brian K (President and COO) Sale 100,000 34.01 3,400,700
2011-04-29 Winkler Joseph C (Chairman and CEO) Sale 293,749 34.11 10,020,365
2011-04-29 Winkler Joseph C (Chairman and CEO) Option Ex 97,849 21.94 2,146,317
2011-04-28 Hamm Harold (Director) Sale 260,654 33.70 8,783,518
2011-04-27 Hamm Harold (Director) Sale 156,584 33.50 5,246,346
2011-04-26 Hamm Harold (Director) Sale 399,817 34.34 13,729,715
2011-04-25 Hamm Harold (Director) Sale 226,054 34.14 7,717,483
2011-03-25 Woods James D (Director) Sale 69,385 31.25 2,168,281
2011-03-18 Maroney Jf Iii (VP, Sec. and Gen. Counsel) Sale 225,640 30.00 6,769,200
2011-03-18 Maroney Jf Iii (VP, Sec. and Gen. Counsel) Option Ex 110,669 15.06 1,666,896
2011-03-07 Nibling Kenneth L (VP HR and Admin.) Sale 134,754 29.12 3,924,710
2011-03-07 Nibling Kenneth L (VP HR and Admin.) Option Ex 88,500 15.74 1,393,167
2011-03-04 Williams Dewayne (VP, Ctroller, CAO, Asst Treas.) Sale 23,334 29.09 678,716
2011-03-04 Williams Dewayne (VP, Ctroller, CAO, Asst Treas.) Option Ex 23,334 18.51 431,912
2010-10-29 Williams Dewayne (VP, Ctroller, CAO, Asst Treas.) Sale 3,333 23.16 77,178
2010-10-29 Williams Dewayne (VP, Ctroller, CAO, Asst Treas.) Option Ex 3,333 6.78 22,597
2010-08-26 Hamm Harold (Director) Buy 60,000 16.70 1,001,880
2010-08-16 Woods James D (Director) Sale 378 17.06 6,449
2010-05-12 Nibling Kenneth L (VP HR and Admin.) Sale 88,702 15.01 1,331,062
2010-05-12 Nibling Kenneth L (VP HR and Admin.) Option Ex 28,967 9.04 261,716
2010-05-11 Nibling Kenneth L (VP HR and Admin.) Sale 7,000 15.00 105,000
2010-05-11 Nibling Kenneth L (VP HR and Admin.) Option Ex 6,100 9.04 55,113
2010-02-03 Simmons L E & Associates Inc (Other) Sale 131,762 13.33 1,756,387
2010-02-02 Simmons L E & Associates Inc (Other) Sale 184,715 13.12 2,423,460
2010-02-01 Simmons L E & Associates Inc (Other) Sale 600 13.32 7,992
2010-01-22 Simmons L E & Associates Inc (Other) Sale 56,110 14.58 818,083
2010-01-21 Simmons L E & Associates Inc (Other) Sale 135,503 15.10 2,046,095
2010-01-20 Simmons L E & Associates Inc (Other) Sale 200,000 14.86 2,972,000
2010-01-19 Simmons L E & Associates Inc (Other) Sale 200,000 14.65 2,930,000
2010-01-15 Simmons L E & Associates Inc (Other) Sale 161,422 14.59 2,355,146
2010-01-14 Simmons L E & Associates Inc (Other) Sale 237,167 14.53 3,446,036
2010-01-13 Simmons L E & Associates Inc (Other) Sale 124,074 14.31 1,775,498
2010-01-12 Simmons L E & Associates Inc (Other) Sale 131,220 14.22 1,865,948
2010-01-08 Simmons L E & Associates Inc (Other) Sale 126,519 14.49 1,833,260
2010-01-07 Simmons L E & Associates Inc (Other) Sale 200,000 14.27 2,854,000
2010-01-06 Simmons L E & Associates Inc (Other) Sale 175,000 14.71 2,574,250
2010-01-05 Simmons L E & Associates Inc (Other) Sale 200,000 14.18 2,836,000
2010-01-04 Simmons L E & Associates Inc (Other) Sale 200,000 13.91 2,782,000
2009-12-18 Bayardo Jose A (VP, CFO and Treasurer) Option Ex 12,702 5.00 63,510
2009-12-09 Woods James D (Director) Option Ex 4,001 5.00 20,005
2009-11-24 Woods James D (Director) Buy 505 9.89 4,993
2009-11-19 Woods James D (Director) Buy 100 9.47 946
2009-10-21 Simmons L E & Associates Inc (Other) Sale 111,100 11.85 1,316,535
2009-10-19 Simmons L E & Associates Inc (Other) Sale 62,201 12.10 752,632
2009-10-15 Simmons L E & Associates Inc (Other) Sale 150,000 12.25 1,837,500
2009-10-14 Simmons L E & Associates Inc (Other) Sale 165,000 12.31 2,031,150
2009-10-13 Simmons L E & Associates Inc (Other) Sale 75,000 12.10 907,500
2009-10-12 Simmons L E & Associates Inc (Other) Sale 110,000 12.46 1,370,600
2009-10-09 Simmons L E & Associates Inc (Other) Sale 65,000 12.39 805,350
2009-10-08 Simmons L E & Associates Inc (Other) Sale 208,819 12.53 2,616,502
2009-10-07 Simmons L E & Associates Inc (Other) Sale 250,000 12.15 3,037,500
2009-10-06 Simmons L E & Associates Inc (Other) Sale 119,200 12.11 1,443,512
2009-10-05 Simmons L E & Associates Inc (Other) Sale 171,443 11.73 2,011,026
2009-10-02 Simmons L E & Associates Inc (Other) Sale 120,000 11.48 1,377,600
2009-10-01 Simmons L E & Associates Inc (Other) Sale 115,000 11.37 1,307,895
2009-09-30 Simmons L E & Associates Inc (Other) Sale 150,000 11.34 1,701,000
2009-06-29 Hamm Harold (Director) Buy 30,000 6.05 181,410
2009-06-25 Hamm Harold (Director) Buy 33,600 5.61 188,496
2009-06-05 Hamm Harold (Director) Buy 35,000 7.68 268,765
2009-06-04 Hamm Harold (Director) Buy 95,046 7.70 731,378
2009-06-03 Hamm Harold (Director) Buy 10,000 7.17 71,700
2009-03-27 Bayardo Jose A (VP, CFO and Treasurer) Buy 10,000 3.29 32,920
2009-03-27 Moore Brian K (President and COO) Buy 50,000 3.34 166,750
2009-03-24 Hamm Harold (Director) Buy 165,000 3.44 567,435
2009-03-03 Waite Andrew L (Director) Buy 60,000 2.58 154,920
2009-03-02 Winkler Joseph C (Chairman and CEO) Buy 100,000 2.75 275,100
2009-03-02 Waite Andrew L (Director) Buy 304,000 2.74 833,872
2009-02-05 Boswell Robert S (Director) Option Ex 12,514 2.00 25,028
2009-02-04 Maroney Jf Iii (VP, Sec. and Gen. Counsel) Buy 20,000 4.98 99,600
2009-02-04 Winkler Joseph C (Chairman and CEO) Buy 63,700 4.83 307,671
2009-02-04 Woods James D (Director) Buy 60,000 4.99 299,400
2008-12-29 Nibling Kenneth L (VP HR and Admin.) Buy 14,285 7.00 99,995
2008-12-23 Nibling Kenneth L (VP HR and Admin.) Buy 10,500 7.09 74,455
2008-12-22 Nibling Kenneth L (VP HR and Admin.) Buy 14,500 7.44 107,807
2008-12-10 Woods James D (Director) Option Ex 4,461 4.48 19,985
2008-12-05 Winkler Joseph C (Chairman and CEO) Buy 10,000 5.87 58,680
2008-12-04 Hamm Harold (Director) Buy 30,000 6.43 192,780
2008-08-28 Simmons L E & Associates Inc (Other) Sale 33,900 30.46 1,032,594
2008-08-27 Simmons L E & Associates Inc (Other) Sale 185,805 30.54 5,673,555
2008-08-26 Waite Andrew L (Director) Sale 50,000 29.88 1,494,000
2008-08-26 Simmons L E & Associates Inc (Other) Sale 663,194 29.69 19,688,903
2008-08-22 Simmons L E & Associates Inc (Other) Sale 13,706 29.49 404,189
2008-08-21 Simmons L E & Associates Inc (Other) Sale 299,909 29.50 8,846,715
2008-08-07 Simmons L E & Associates Inc (Other) Sale 119,581 29.14 3,484,590
2008-08-05 Simmons L E & Associates Inc (Other) Sale 294,500 29.56 8,705,420
2008-08-01 Waite Andrew L (Director) Sale 37,262 31.86 1,187,167
2008-08-01 Simmons L E & Associates Inc (Other) Sale 5,500 32.02 176,110
2008-07-31 Waite Andrew L (Director) Sale 50,000 31.85 1,592,500
2008-07-02 Woods James D (Director) Sale 69,900 37.50 2,621,250
2008-06-30 Woods James D (Director) Sale 100 37.50 3,750
2008-06-27 Moore Brian K (President and COO) Sale 32,610 35.79 1,167,079
2008-06-25 Maroney Jf Iii (VP, Sec. and Gen. Counsel) Sale 19,899 34.20 680,625
2008-06-25 Maroney Jf Iii (VP, Sec. and Gen. Counsel) Option Ex 19,899 21.94 436,484
2008-06-24 Maroney Jf Iii (VP, Sec. and Gen. Counsel) Sale 56,116 35.60 1,997,897
2008-06-24 Maroney Jf Iii (VP, Sec. and Gen. Counsel) Option Ex 34,666 11.66 404,205
2008-06-20 Nibling Kenneth L (VP HR and Admin.) Sale 7,572 33.50 253,624
2008-06-18 Nibling Kenneth L (VP HR and Admin.) Sale 15,328 33.49 513,365
2008-06-12 Moore Brian K (President and COO) Sale 32,362 31.88 1,031,830
2008-06-12 Moore Brian K (President and COO) Option Ex 32,362 4.48 144,981
2008-06-12 Simmons L E & Associates Inc (Other) Sale 82,608 31.94 2,638,499
2008-06-11 Moore Brian K (President and COO) Sale 1,863 32.00 59,616
2008-06-11 Moore Brian K (President and COO) Option Ex 1,863 4.48 8,346
2008-06-11 Nibling Kenneth L (VP HR and Admin.) Sale 8,000 31.74 253,928
2008-06-11 Nibling Kenneth L (VP HR and Admin.) Option Ex 8,000 11.66 93,280
2008-06-11 Simmons L E & Associates Inc (Other) Sale 200,000 31.91 6,382,000
2008-06-09 Nibling Kenneth L (VP HR and Admin.) Sale 7,167 30.95 221,818
2008-06-09 Nibling Kenneth L (VP HR and Admin.) Option Ex 7,167 11.66 83,567
2008-06-06 Nibling Kenneth L (VP HR and Admin.) Sale 39,500 29.87 1,179,825
2008-06-06 Nibling Kenneth L (VP HR and Admin.) Option Ex 19,500 11.66 227,370
2008-06-03 Simmons L E & Associates Inc (Other) Sale 181,411 29.59 5,367,951
2008-05-21 Weisgarber Robert L (VP-Acctg. and Controller) Sale 9,667 30.00 290,010
2008-05-21 Weisgarber Robert L (VP-Acctg. and Controller) Option Ex 9,667 24.00 232,008
2008-05-21 Simmons L E & Associates Inc (Other) Sale 250,000 30.01 7,502,500
2008-05-20 Simmons L E & Associates Inc (Other) Sale 37,400 29.11 1,088,714
2008-05-19 Simmons L E & Associates Inc (Other) Sale 132,851 29.03 3,856,664
2008-05-16 Simmons L E & Associates Inc (Other) Sale 193,158 28.94 5,589,992
2008-05-15 Simmons L E & Associates Inc (Other) Sale 300,000 28.64 8,592,000
2008-05-14 Simmons L E & Associates Inc (Other) Sale 360,900 28.65 10,339,785
2008-05-13 Simmons L E & Associates Inc (Other) Sale 470,656 28.07 13,211,313
2008-05-12 Simmons L E & Associates Inc (Other) Sale 329,002 27.64 9,093,615
2008-05-09 Simmons L E & Associates Inc (Other) Sale 580,239 27.48 15,944,967
2008-05-08 Simmons L E & Associates Inc (Other) Sale 429,826 27.18 11,682,670
2008-05-07 Weisgarber Robert L (VP-Acctg. and Controller) Sale 4,834 26.88 129,937
2008-05-07 Weisgarber Robert L (VP-Acctg. and Controller) Option Ex 4,834 19.87 96,051
2008-05-07 Simmons L E & Associates Inc (Other) Sale 165,968 26.99 4,479,476
2008-05-06 Simmons L E & Associates Inc (Other) Sale 419,080 27.10 11,357,068
2008-05-05 Simmons L E & Associates Inc (Other) Sale 263,500 26.92 7,093,420
2008-05-02 Simmons L E & Associates Inc (Other) Sale 234,700 26.46 6,210,162
2008-04-30 Bayardo Jose A (VP Corp Dev. & Invest Rel) Sale 5,081 27.01 137,237
2008-04-30 Bayardo Jose A (VP Corp Dev. & Invest Rel) Option Ex 5,081 4.48 22,762
2008-04-30 Moore Brian K (President and COO) Sale 77,300 27.02 2,088,414
2008-04-30 Moore Brian K (President and COO) Option Ex 77,300 4.48 346,304
2008-04-30 Mayer J Michael (Sr. VP and CFO) Sale 70,144 .00 0
2008-04-30 Mayer J Michael (Sr. VP and CFO) Option Ex 70,144 2.00 140,288
2008-04-30 Simmons L E & Associates Inc (Other) Sale 146,520 27.07 3,966,296
2008-04-29 Simmons L E & Associates Inc (Other) Sale 86,200 27.20 2,344,640
2008-04-28 Weisgarber Robert L (VP-Acctg. and Controller) Sale 31,286 .00 0
2008-04-28 Weisgarber Robert L (VP-Acctg. and Controller) Option Ex 31,286 4.79 149,859
2008-04-28 Simmons L E & Associates Inc (Other) Sale 100,000 28.06 2,806,000
2007-12-31 Woods James D (Director) Option Ex 4,461 4.48 19,985
2007-06-07 Mayer J Michael (Sr. VP and CFO) Sale 15,000 .00 0
2007-06-07 Mayer J Michael (Sr. VP and CFO) Option Ex 15,000 2.00 30,000
2007-05-22 Weisgarber Robert L (VP-Acctg. and Controller) Sale 1,286 27.40 35,236
2007-05-22 Weisgarber Robert L (VP-Acctg. and Controller) Option Ex 1,286 4.79 6,159
2007-05-15 Weisgarber Robert L (VP-Acctg. and Controller) Sale 5,000 .00 0
2007-05-15 Weisgarber Robert L (VP-Acctg. and Controller) Option Ex 5,000 4.79 23,950
2007-05-08 Weisgarber Robert L (VP-Acctg. and Controller) Sale 5,000 .00 0
2007-05-08 Weisgarber Robert L (VP-Acctg. and Controller) Option Ex 5,000 4.79 23,950
2007-05-01 Weisgarber Robert L (VP-Acctg. and Controller) Sale 5,000 .00 0
2007-05-01 Weisgarber Robert L (VP-Acctg. and Controller) Option Ex 5,000 4.79 23,950
2007-04-24 Weisgarber Robert L (VP-Acctg. and Controller) Sale 5,000 .00 0
2007-04-24 Weisgarber Robert L (VP-Acctg. and Controller) Option Ex 5,000 4.79 23,950
2007-04-23 Weisgarber Robert L (VP-Acctg. and Controller) Sale 15,000 23.00 345,000
2007-04-23 Weisgarber Robert L (VP-Acctg. and Controller) Option Ex 15,000 4.79 71,850
2007-04-23 Mayer J Michael (Sr. VP and CFO) Sale 30,000 11.50 345,000
2007-04-23 Mayer J Michael (Sr. VP and CFO) Option Ex 30,000 2.00 60,000
2007-04-17 Weisgarber Robert L (VP-Acctg. and Controller) Sale 5,000 22.50 112,500
2007-04-17 Weisgarber Robert L (VP-Acctg. and Controller) Option Ex 5,000 4.79 23,950
2007-04-17 Woods James D (Director) Option Ex 2,540 3.94 10,007
2007-04-12 Mayer J Michael (Sr. VP and CFO) Sale 10,000 22.00 220,000
2007-04-12 Mayer J Michael (Sr. VP and CFO) Option Ex 10,000 2.00 20,000
2007-04-10 Weisgarber Robert L (VP-Acctg. and Controller) Sale 6,900 20.00 138,000
2007-04-10 Weisgarber Robert L (VP-Acctg. and Controller) Option Ex 6,900 4.79 33,051
2007-03-28 Weisgarber Robert L (VP-Acctg. and Controller) Sale 1,100 20.00 22,000
2007-03-28 Weisgarber Robert L (VP-Acctg. and Controller) Option Ex 1,100 4.79 5,269
2007-03-27 Weisgarber Robert L (VP-Acctg. and Controller) Sale 3,900 20.00 78,000
2007-03-27 Weisgarber Robert L (VP-Acctg. and Controller) Option Ex 3,900 4.79 18,681
2007-03-22 Weisgarber Robert L (VP-Acctg. and Controller) Sale 20,800 20.00 416,000
2007-03-22 Weisgarber Robert L (VP-Acctg. and Controller) Option Ex 20,800 4.79 99,632
2007-03-20 Weisgarber Robert L (VP-Acctg. and Controller) Sale 3,586 20.00 71,720
2007-02-21 Weisgarber Robert L (VP-Acctg. and Controller) Sale 26,604 20.02 532,718
2007-02-20 Winkler Joseph C (President and CEO) Buy 12,500 19.51 243,875
2006-12-15 Boswell Robert S (Director) Sale 5,000 22.01 110,050
2006-07-31 Hamm Harold (Director) Buy 5,000 20.95 104,765
2006-07-27 Woods James D (Director) Option Ex 1,905 3.94 7,498
2006-05-23 Hamm Harold (Director) Buy 5,000 23.14 115,725
2006-05-19 Mayer J Michael (SVP & CFO) Buy 14,000 22.37 313,180
2006-05-18 Hamm Harold (Director) Buy 10,000 23.50 235,000
2006-04-26 Baldwin David C (Director) Buy 8,300 24.00 199,200
2006-04-26 Hamm Harold (Director) Buy 125,000 24.00 3,000,000
2006-04-26 Winkler Joseph C (President & CEO) Buy 10,400 24.00 249,600
2006-04-26 Whaling R Graham (Director) Buy 16,600 24.00 398,400
2006-04-26 Waite Andrew L (Director) Buy 8,300 24.00 199,200
2006-04-26 Woods James D (Director) Buy 21,178 24.00 508,272
2006-04-26 Simmons L E & Associates Inc (Other) Sale 14,500,000 22.50 326,250,000

Insider trading activities including stock purchases, stock sales, and option exercises of CPX listed in the above tables cannot be completely guaranteed as to their accuracy. For more insider trading information of Complete Production Services, Inc. (symbol CPX, CIK number 1340041) see the Securities and Exchange Commission (SEC) website.